createdAt,value
2023-08-14T00:01:57.046Z,100.00
2023-08-14T00:04:23.523Z,100.00
2023-08-14T00:06:50.135Z,100.00
2023-08-14T00:09:16.686Z,100.00
2023-08-14T00:11:43.155Z,100.00
2023-08-14T00:14:09.613Z,100.00
2023-08-14T00:16:36.068Z,100.00
2023-08-14T00:19:02.519Z,100.00
2023-08-14T00:21:31.766Z,100.00
2023-08-14T00:23:58.278Z,100.00
2023-08-14T00:26:24.775Z,100.00
2023-08-14T00:28:51.466Z,100.00
2023-08-14T00:31:18.379Z,100.00
2023-08-14T00:33:44.998Z,100.00
2023-08-14T00:36:11.594Z,100.00
2023-08-14T00:38:38.073Z,100.00
2023-08-14T00:41:04.827Z,100.00
2023-08-14T00:43:31.284Z,100.00
2023-08-14T00:45:58.753Z,100.00
2023-08-14T00:48:26.666Z,100.00
2023-08-14T00:50:54.938Z,100.00
2023-08-14T00:53:22.307Z,100.00
2023-08-14T00:55:49.175Z,100.00
2023-08-14T00:58:16.242Z,100.00
2023-08-14T01:00:44.434Z,100.00
2023-08-14T01:03:11.343Z,100.00
2023-08-14T01:05:38.040Z,100.00
2023-08-14T01:08:04.623Z,100.00
2023-08-14T01:10:58.156Z,100.00
2023-08-14T01:13:31.882Z,100.00
2023-08-14T01:16:01.755Z,100.00
2023-08-14T01:18:31.798Z,100.00
2023-08-14T01:21:14.088Z,100.00
2023-08-14T01:24:07.954Z,100.00
2023-08-14T01:26:35.692Z,100.00
2023-08-14T01:29:04.364Z,100.00
2023-08-14T01:31:31.230Z,100.00
2023-08-14T01:33:58.397Z,100.00
2023-08-14T01:36:33.865Z,100.00
2023-08-14T01:39:10.731Z,100.00
2023-08-14T01:42:03.833Z,100.00
2023-08-14T01:44:32.288Z,100.00
2023-08-14T01:47:01.200Z,100.00
2023-08-14T01:49:31.269Z,100.00
2023-08-14T01:51:59.115Z,100.00
2023-08-14T01:54:26.070Z,100.00
2023-08-14T01:56:52.569Z,100.00
2023-08-14T01:59:23.264Z,100.00
2023-08-14T02:01:50.029Z,100.00
2023-08-14T02:04:16.457Z,100.00
2023-08-14T02:06:42.997Z,100.00
2023-08-14T02:09:09.489Z,100.00
2023-08-14T02:11:35.907Z,100.00
2023-08-14T02:14:02.511Z,100.00
2023-08-14T02:16:28.991Z,100.00
2023-08-14T02:18:55.600Z,100.00
2023-08-14T02:21:22.384Z,100.00
2023-08-14T02:23:48.773Z,100.00
2023-08-14T02:26:15.240Z,100.00
2023-08-14T02:28:41.795Z,100.00
2023-08-14T02:31:09.737Z,100.00
2023-08-14T02:33:36.412Z,100.00
2023-08-14T02:36:02.871Z,100.00
2023-08-14T02:38:31.527Z,100.00
2023-08-14T02:40:58.302Z,100.00
2023-08-14T02:43:25.709Z,100.00
2023-08-14T02:45:52.182Z,100.00
2023-08-14T02:48:18.724Z,100.00
2023-08-14T02:50:45.352Z,100.00
2023-08-14T02:53:11.854Z,100.00
2023-08-14T02:55:38.324Z,100.00
2023-08-14T02:58:04.867Z,100.00
2023-08-14T03:00:31.441Z,100.00
2023-08-14T03:02:57.957Z,100.00
2023-08-14T03:05:24.734Z,100.00
2023-08-14T03:07:51.263Z,100.00
2023-08-14T03:10:18.016Z,100.00
2023-08-14T03:12:44.494Z,100.00
2023-08-14T03:15:11.043Z,100.00
2023-08-14T03:17:37.517Z,100.00
2023-08-14T03:20:05.914Z,100.00
2023-08-14T03:22:32.430Z,100.00
2023-08-14T03:24:58.864Z,100.00
2023-08-14T03:27:25.750Z,100.00
2023-08-14T03:29:52.151Z,100.00
2023-08-14T03:32:18.809Z,100.00
2023-08-14T03:34:45.581Z,100.00
2023-08-14T03:37:12.846Z,100.00
2023-08-14T03:39:39.595Z,100.00
2023-08-14T03:42:06.195Z,100.00
2023-08-14T03:44:32.718Z,100.00
2023-08-14T03:46:59.276Z,100.00
2023-08-14T03:49:25.866Z,100.00
2023-08-14T03:51:52.309Z,100.00
2023-08-14T03:54:18.858Z,100.00
2023-08-14T03:56:45.353Z,100.00
2023-08-14T03:59:13.208Z,100.00
2023-08-14T04:01:41.514Z,100.00
2023-08-14T04:04:07.964Z,100.00
2023-08-14T04:06:35.815Z,100.00
2023-08-14T04:09:03.546Z,100.00
2023-08-14T04:11:31.696Z,100.00
2023-08-14T04:13:58.123Z,100.00
2023-08-14T04:16:42.254Z,100.00
2023-08-14T04:19:10.001Z,100.00
2023-08-14T04:21:37.227Z,100.00
2023-08-14T04:24:04.133Z,100.00
2023-08-14T04:26:30.687Z,100.00
2023-08-14T04:28:57.149Z,100.00
2023-08-14T04:31:23.817Z,100.00
2023-08-14T04:33:50.545Z,100.00
2023-08-14T04:36:16.947Z,100.00
2023-08-14T04:38:43.406Z,100.00
2023-08-14T04:41:10.316Z,100.00
2023-08-14T04:43:36.787Z,100.00
2023-08-14T04:46:12.663Z,100.00
2023-08-14T04:48:39.510Z,100.00
2023-08-14T04:51:07.704Z,100.00
2023-08-14T04:53:34.152Z,100.00
2023-08-14T04:56:00.583Z,100.00
2023-08-14T04:58:27.080Z,100.00
2023-08-14T05:00:53.754Z,100.00
2023-08-14T05:03:20.277Z,100.00
2023-08-14T05:05:51.429Z,100.00
2023-08-14T05:08:17.897Z,100.00
2023-08-14T05:10:44.538Z,100.00
2023-08-14T05:13:11.110Z,100.00
2023-08-14T05:15:39.107Z,100.00
2023-08-14T05:18:05.833Z,100.00
2023-08-14T05:20:34.771Z,100.00
2023-08-14T05:23:01.371Z,100.00
2023-08-14T05:25:27.831Z,100.00
2023-08-14T05:27:54.422Z,100.00
2023-08-14T05:30:20.922Z,100.00
2023-08-14T05:32:50.050Z,100.00
2023-08-14T05:35:17.966Z,100.00
2023-08-14T05:37:44.526Z,100.00
2023-08-14T05:40:11.538Z,100.00
2023-08-14T05:42:37.948Z,100.00
2023-08-14T05:45:04.830Z,100.00
2023-08-14T05:47:31.267Z,100.00
2023-08-14T05:49:57.917Z,100.00
2023-08-14T05:52:24.398Z,100.00
2023-08-14T05:54:50.830Z,100.00
2023-08-14T05:57:17.269Z,100.00
2023-08-14T05:59:43.822Z,100.00
2023-08-14T06:02:10.465Z,100.00
2023-08-14T06:04:38.858Z,100.00
2023-08-14T06:07:05.541Z,100.00
2023-08-14T06:09:32.130Z,100.00
2023-08-14T06:11:58.784Z,100.00
2023-08-14T06:14:25.491Z,100.00
2023-08-14T06:16:51.957Z,100.00
2023-08-14T06:19:18.927Z,100.00
2023-08-14T06:21:45.460Z,100.00
2023-08-14T06:24:11.934Z,100.00
2023-08-14T06:26:38.440Z,100.00
2023-08-14T06:29:05.192Z,100.00
2023-08-14T06:31:31.843Z,98.31
2023-08-14T06:33:58.388Z,97.68
2023-08-14T06:36:25.175Z,98.46
2023-08-14T06:38:51.600Z,97.41
2023-08-14T06:41:18.540Z,98.40
2023-08-14T06:43:46.250Z,97.48
2023-08-14T06:46:12.841Z,96.65
2023-08-14T06:48:39.274Z,97.84
2023-08-14T06:51:05.920Z,95.13
2023-08-14T06:53:33.053Z,95.17
2023-08-14T06:55:59.823Z,93.56
2023-08-14T06:58:26.315Z,92.06
2023-08-14T07:00:52.965Z,92.75
2023-08-14T07:03:19.855Z,91.87
2023-08-14T07:05:46.658Z,89.83
2023-08-14T07:08:13.359Z,90.87
2023-08-14T07:10:39.785Z,88.84
2023-08-14T07:13:07.883Z,89.06
2023-08-14T07:15:34.763Z,87.93
2023-08-14T07:18:01.299Z,89.28
2023-08-14T07:20:27.846Z,88.65
2023-08-14T07:22:55.451Z,87.68
2023-08-14T07:25:22.031Z,90.83
2023-08-14T07:27:48.491Z,88.00
2023-08-14T07:30:15.698Z,90.35
2023-08-14T07:32:42.202Z,90.60
2023-08-14T07:35:08.896Z,90.21
2023-08-14T07:37:35.336Z,90.17
2023-08-14T07:40:01.854Z,89.44
2023-08-14T07:42:28.394Z,88.02
2023-08-14T07:44:54.943Z,89.05
2023-08-14T07:47:21.544Z,88.94
2023-08-14T07:49:48.233Z,88.61
2023-08-14T07:52:14.844Z,87.72
2023-08-14T07:54:41.276Z,87.83
2023-08-14T07:57:07.720Z,87.58
2023-08-14T07:59:34.283Z,85.28
2023-08-14T08:02:00.783Z,84.26
2023-08-14T08:07:05.456Z,84.60
2023-08-14T08:09:32.507Z,82.25
2023-08-14T08:11:59.396Z,84.68
2023-08-14T08:14:27.018Z,83.05
2023-08-14T08:16:53.823Z,78.70
2023-08-14T08:19:20.340Z,79.27
2023-08-14T08:21:46.746Z,77.37
2023-08-14T08:24:13.210Z,80.42
2023-08-14T08:26:39.773Z,78.08
2023-08-14T08:29:06.815Z,77.42
2023-08-14T08:31:33.730Z,75.12
2023-08-14T08:34:00.295Z,75.65
2023-08-14T08:36:26.929Z,76.63
2023-08-14T08:38:53.472Z,74.95
2023-08-14T08:41:38.917Z,75.94
2023-08-14T08:44:11.113Z,77.20
2023-08-14T08:49:10.896Z,72.06
2023-08-14T08:51:40.045Z,73.22
2023-08-14T08:54:07.050Z,71.30
2023-08-14T08:56:35.260Z,69.61
2023-08-14T08:59:03.916Z,70.66
2023-08-14T09:01:32.081Z,68.75
2023-08-14T09:03:58.940Z,71.32
2023-08-14T09:06:25.596Z,67.62
2023-08-14T09:08:52.151Z,66.95
2023-08-14T09:11:18.948Z,69.92
2023-08-14T09:13:45.721Z,67.31
2023-08-14T09:16:16.493Z,66.56
2023-08-14T09:18:46.701Z,67.05
2023-08-14T09:21:13.947Z,66.52
2023-08-14T09:23:41.310Z,69.08
2023-08-14T09:26:08.414Z,66.95
2023-08-14T09:28:36.625Z,70.81
2023-08-14T09:31:10.589Z,69.57
2023-08-14T09:33:38.153Z,67.78
2023-08-14T09:36:05.154Z,67.11
2023-08-14T09:38:32.349Z,66.24
2023-08-14T09:41:00.153Z,63.40
2023-08-14T09:43:28.564Z,65.78
2023-08-14T09:45:57.817Z,65.01
2023-08-14T09:48:39.455Z,65.29
2023-08-14T09:51:06.266Z,60.89
2023-08-14T09:53:32.774Z,61.43
2023-08-14T09:56:06.077Z,62.36
2023-08-14T09:58:33.337Z,61.94
2023-08-14T10:01:00.036Z,60.36
2023-08-14T10:03:27.038Z,62.11
2023-08-14T10:05:54.029Z,63.84
2023-08-14T10:08:21.281Z,62.18
2023-08-14T10:11:00.542Z,64.73
2023-08-14T10:13:42.741Z,63.63
2023-08-14T10:16:13.159Z,62.23
2023-08-14T10:18:43.089Z,64.15
2023-08-14T10:21:15.258Z,64.56
2023-08-14T10:23:42.642Z,61.22
2023-08-14T10:26:11.149Z,62.33
2023-08-14T10:28:38.043Z,64.86
2023-08-14T10:31:05.013Z,63.47
2023-08-14T10:33:31.930Z,61.21
2023-08-14T10:36:01.244Z,61.35
2023-08-14T10:41:23.736Z,62.26
2023-08-14T10:43:53.393Z,62.24
2023-08-14T10:46:20.287Z,61.75
2023-08-14T10:48:50.691Z,61.31
2023-08-14T10:51:21.899Z,61.22
2023-08-14T10:53:48.510Z,60.35
2023-08-14T10:56:15.123Z,60.68
2023-08-14T10:58:48.783Z,61.50
2023-08-14T11:01:16.282Z,62.05
2023-08-14T11:04:06.160Z,60.90
2023-08-14T11:07:06.485Z,60.64
2023-08-14T11:09:34.931Z,59.56
2023-08-14T11:12:06.724Z,56.03
2023-08-14T11:14:38.894Z,58.04
2023-08-14T11:17:06.000Z,59.43
2023-08-14T11:19:35.244Z,58.21
2023-08-14T11:22:03.012Z,58.17
2023-08-14T11:24:30.846Z,58.13
2023-08-14T11:27:01.838Z,54.66
2023-08-14T11:29:30.785Z,55.29
2023-08-14T11:32:01.166Z,55.94
2023-08-14T11:34:27.687Z,56.91
2023-08-14T11:37:07.368Z,54.99
2023-08-14T11:39:35.996Z,58.79
2023-08-14T11:42:04.142Z,52.33
2023-08-14T11:44:30.697Z,55.20
2023-08-14T11:46:57.942Z,55.37
2023-08-14T11:49:25.833Z,52.17
2023-08-14T11:51:53.767Z,53.36
2023-08-14T11:54:20.719Z,55.08
2023-08-14T11:56:48.800Z,55.46
2023-08-14T11:59:18.478Z,55.60
2023-08-14T12:01:45.364Z,54.53
2023-08-14T12:04:12.333Z,56.05
2023-08-14T12:06:38.942Z,54.17
2023-08-14T12:09:10.988Z,55.28
2023-08-14T12:11:39.020Z,54.18
2023-08-14T12:14:08.859Z,56.87
2023-08-14T12:16:39.464Z,58.78
2023-08-14T12:19:12.898Z,59.08
2023-08-14T12:21:39.554Z,57.65
2023-08-14T12:24:06.890Z,56.98
2023-08-14T12:26:42.136Z,60.25
2023-08-14T12:29:09.466Z,59.43
2023-08-14T12:31:36.284Z,58.21
2023-08-14T12:34:07.277Z,58.49
2023-08-14T12:36:34.484Z,64.38
2023-08-14T12:39:01.012Z,60.02
2023-08-14T12:41:27.952Z,58.07
2023-08-14T12:43:54.489Z,57.33
2023-08-14T12:46:21.093Z,57.56
2023-08-14T12:48:47.628Z,58.52
2023-08-14T12:51:14.076Z,59.70
2023-08-14T12:53:40.865Z,60.01
2023-08-14T12:56:07.627Z,56.17
2023-08-14T12:58:34.117Z,55.91
2023-08-14T13:03:36.291Z,56.77
2023-08-14T13:06:04.537Z,57.62
2023-08-14T13:08:31.103Z,57.69
2023-08-14T13:10:58.002Z,60.92
2023-08-14T13:13:28.432Z,57.64
2023-08-14T13:15:56.358Z,57.76
2023-08-14T13:18:23.640Z,54.98
2023-08-14T13:20:50.207Z,59.48
2023-08-14T13:23:17.076Z,58.79
2023-08-14T13:25:43.780Z,57.26
2023-08-14T13:28:10.663Z,57.74
2023-08-14T13:30:37.629Z,55.95
2023-08-14T13:33:05.354Z,59.37
2023-08-14T13:35:31.949Z,60.26
2023-08-14T13:38:00.112Z,59.67
2023-08-14T13:40:26.930Z,59.48
2023-08-14T13:42:53.380Z,60.93
2023-08-14T13:45:20.198Z,62.42
2023-08-14T13:47:54.898Z,59.94
2023-08-14T13:50:33.187Z,57.47
2023-08-14T13:53:02.544Z,61.30
2023-08-14T13:55:32.279Z,55.60
2023-08-14T13:57:59.439Z,59.73
2023-08-14T14:00:30.142Z,59.44
2023-08-14T14:02:58.514Z,60.86
2023-08-14T14:05:25.714Z,56.75
2023-08-14T14:07:55.787Z,55.93
2023-08-14T14:10:27.558Z,58.52
2023-08-14T14:15:23.910Z,55.01
2023-08-14T14:17:50.793Z,56.67
2023-08-14T14:20:18.055Z,58.94
2023-08-14T14:22:44.651Z,59.79
2023-08-14T14:25:12.459Z,58.74
2023-08-14T14:27:39.005Z,56.12
2023-08-14T14:30:06.485Z,56.55
2023-08-14T14:32:33.027Z,55.02
2023-08-14T14:34:59.479Z,55.79
2023-08-14T14:37:25.906Z,57.00
2023-08-14T14:39:52.520Z,56.28
2023-08-14T14:42:20.553Z,54.87
2023-08-14T14:44:47.926Z,55.50
2023-08-14T14:47:14.604Z,54.74
2023-08-14T14:49:41.093Z,53.13
2023-08-14T14:52:07.527Z,52.49
2023-08-14T14:54:33.936Z,55.29
2023-08-14T14:57:00.336Z,53.44
2023-08-14T14:59:26.810Z,53.02
2023-08-14T15:01:53.679Z,54.04
2023-08-14T15:04:21.910Z,51.42
2023-08-14T15:06:48.791Z,51.25
2023-08-14T15:09:15.225Z,50.33
2023-08-14T15:11:41.610Z,48.51
2023-08-14T15:14:08.076Z,49.89
2023-08-14T15:16:34.742Z,50.45
2023-08-14T15:19:01.161Z,51.05
2023-08-14T15:21:27.585Z,50.18
2023-08-14T15:23:54.045Z,51.62
2023-08-14T15:26:21.115Z,50.43
2023-08-14T15:28:47.495Z,51.54
2023-08-14T15:31:14.021Z,50.83
2023-08-14T15:33:40.495Z,50.44
2023-08-14T15:36:07.076Z,48.91
2023-08-14T15:38:33.724Z,50.45
2023-08-14T15:41:00.101Z,52.13
2023-08-14T15:43:26.817Z,49.50
2023-08-14T15:46:11.277Z,46.54
2023-08-14T15:48:37.750Z,49.89
2023-08-14T15:51:04.143Z,48.24
2023-08-14T15:53:30.573Z,49.10
2023-08-14T15:55:56.955Z,49.25
2023-08-14T15:58:23.415Z,50.29
2023-08-14T16:00:49.902Z,48.32
2023-08-14T16:03:16.322Z,50.81
2023-08-14T16:05:42.762Z,47.85
2023-08-14T16:08:09.255Z,46.43
2023-08-14T16:10:35.700Z,46.59
2023-08-14T16:13:02.186Z,44.77
2023-08-14T16:15:28.667Z,49.31
2023-08-14T16:17:55.137Z,48.54
2023-08-14T16:20:21.635Z,49.67
2023-08-14T16:22:49.238Z,52.53
2023-08-14T16:25:15.711Z,52.07
2023-08-14T16:27:42.124Z,49.12
2023-08-14T16:30:08.972Z,48.40
2023-08-14T16:32:35.454Z,51.10
2023-08-14T16:35:02.262Z,52.52
2023-08-14T16:37:28.763Z,50.66
2023-08-14T16:39:55.523Z,52.72
2023-08-14T16:42:21.978Z,53.84
2023-08-14T16:44:48.395Z,54.16
2023-08-14T16:47:14.821Z,54.90
2023-08-14T16:49:41.242Z,55.99
2023-08-14T16:52:07.722Z,56.93
2023-08-14T16:54:34.132Z,57.33
2023-08-14T16:57:00.575Z,58.11
2023-08-14T16:59:27.042Z,58.54
2023-08-14T17:01:54.205Z,58.88
2023-08-14T17:04:21.301Z,59.48
2023-08-14T17:06:47.787Z,59.66
2023-08-14T17:09:14.796Z,59.34
2023-08-14T17:11:41.590Z,59.64
2023-08-14T17:14:08.054Z,61.27
2023-08-14T17:16:34.616Z,62.06
2023-08-14T17:19:01.329Z,60.95
2023-08-14T17:21:28.868Z,61.62
2023-08-14T17:23:55.302Z,62.44
2023-08-14T17:26:21.725Z,59.28
2023-08-14T17:28:48.213Z,59.45
2023-08-14T17:31:15.942Z,59.18
2023-08-14T17:33:42.412Z,62.11
2023-08-14T17:36:09.034Z,62.46
2023-08-14T17:38:35.467Z,63.09
2023-08-14T17:41:02.140Z,62.66
2023-08-14T17:43:28.642Z,63.54
2023-08-14T17:45:56.467Z,63.41
2023-08-14T17:48:23.026Z,63.22
2023-08-14T17:50:53.317Z,64.76
2023-08-14T17:53:20.209Z,64.74
2023-08-14T17:55:46.746Z,64.88
2023-08-14T17:58:13.211Z,64.13
2023-08-14T18:00:46.517Z,64.48
2023-08-14T18:03:13.705Z,65.72
2023-08-14T18:05:40.176Z,65.85
2023-08-14T18:08:06.556Z,67.13
2023-08-14T18:10:33.036Z,67.95
2023-08-14T18:12:59.465Z,68.30
2023-08-14T18:15:25.909Z,67.68
2023-08-14T18:17:52.410Z,69.01
2023-08-14T18:20:18.857Z,69.27
2023-08-14T18:22:45.295Z,69.33
2023-08-14T18:25:11.712Z,69.05
2023-08-14T18:27:38.228Z,68.55
2023-08-14T18:30:05.305Z,69.88
2023-08-14T18:32:32.017Z,69.98
2023-08-14T18:34:58.453Z,70.42
2023-08-14T18:37:24.948Z,70.77
2023-08-14T18:39:51.649Z,70.83
2023-08-14T18:42:18.118Z,70.46
2023-08-14T18:44:44.601Z,71.09
2023-08-14T18:47:11.075Z,70.71
2023-08-14T18:49:37.832Z,71.08
2023-08-14T18:52:04.480Z,72.82
2023-08-14T18:54:30.884Z,71.75
2023-08-14T18:56:57.333Z,72.19
2023-08-14T18:59:24.403Z,72.83
2023-08-14T19:01:52.102Z,74.24
2023-08-14T19:04:25.841Z,75.69
2023-08-14T19:06:59.689Z,76.04
2023-08-14T19:09:26.104Z,77.12
2023-08-14T19:11:52.545Z,75.05
2023-08-14T19:14:19.006Z,73.77
2023-08-14T19:16:45.452Z,74.66
2023-08-14T19:19:11.906Z,75.18
2023-08-14T19:21:38.406Z,74.09
2023-08-14T19:24:05.339Z,73.68
2023-08-14T19:26:31.808Z,74.70
2023-08-14T19:28:58.263Z,74.25
2023-08-14T19:31:26.730Z,74.06
2023-08-14T19:33:55.872Z,74.42
2023-08-14T19:36:22.447Z,73.95
2023-08-14T19:38:48.835Z,74.25
2023-08-14T19:41:15.323Z,75.01
2023-08-14T19:43:41.814Z,75.73
2023-08-14T19:46:08.218Z,76.25
2023-08-14T19:48:34.741Z,76.02
2023-08-14T19:51:01.186Z,77.06
2023-08-14T19:53:27.667Z,76.83
2023-08-14T19:55:54.220Z,78.92
2023-08-14T19:58:20.806Z,78.13
2023-08-14T20:00:48.577Z,78.26
2023-08-14T20:03:16.088Z,80.05
2023-08-14T20:05:48.519Z,78.98
2023-08-14T20:08:15.995Z,79.21
2023-08-14T20:10:42.975Z,80.67
2023-08-14T20:13:09.821Z,80.23
2023-08-14T20:15:43.592Z,80.59
2023-08-14T20:18:11.086Z,80.22
2023-08-14T20:20:41.075Z,80.46
2023-08-14T20:23:08.465Z,80.37
2023-08-14T20:25:35.521Z,80.87
2023-08-14T20:28:02.799Z,81.39
2023-08-14T20:30:29.358Z,80.98
2023-08-14T20:32:55.911Z,81.09
2023-08-14T20:35:22.416Z,81.79
2023-08-14T20:37:48.870Z,81.22
2023-08-14T20:40:15.279Z,80.71
2023-08-14T20:42:41.789Z,81.25
2023-08-14T20:45:08.621Z,81.07
2023-08-14T20:47:35.955Z,81.26
2023-08-14T20:50:02.482Z,81.51
2023-08-14T20:52:28.941Z,81.89
2023-08-14T20:54:55.594Z,82.25
2023-08-14T20:57:22.831Z,83.45
2023-08-14T20:59:49.325Z,83.66
2023-08-14T21:02:15.789Z,84.57
2023-08-14T21:04:42.302Z,83.82
2023-08-14T21:07:09.098Z,84.27
2023-08-14T21:09:35.930Z,84.83
2023-08-14T21:12:02.454Z,84.88
2023-08-14T21:14:28.866Z,84.51
2023-08-14T21:16:55.366Z,84.93
2023-08-14T21:19:21.772Z,84.87
2023-08-14T21:21:48.349Z,85.85
2023-08-14T21:24:14.806Z,84.97
2023-08-14T21:26:41.435Z,86.37
2023-08-14T21:29:07.859Z,86.19
2023-08-14T21:31:34.440Z,87.65
2023-08-14T21:34:01.003Z,87.06
2023-08-14T21:36:27.454Z,88.00
2023-08-14T21:38:54.067Z,87.48
2023-08-14T21:41:20.494Z,87.39
2023-08-14T21:43:46.956Z,87.50
2023-08-14T21:46:13.498Z,87.16
2023-08-14T21:48:39.922Z,86.94
2023-08-14T21:51:06.317Z,86.71
2023-08-14T21:53:32.961Z,85.28
2023-08-14T21:55:59.427Z,86.09
2023-08-14T21:58:25.868Z,85.84
2023-08-14T22:00:52.401Z,84.40
2023-08-14T22:03:18.837Z,84.53
2023-08-14T22:05:45.331Z,84.55
2023-08-14T22:08:12.027Z,85.24
2023-08-14T22:10:38.432Z,86.77
2023-08-14T22:13:04.833Z,86.64
2023-08-14T22:18:03.390Z,87.22
2023-08-14T22:20:29.818Z,88.02
2023-08-14T22:22:56.256Z,88.37
2023-08-14T22:25:23.003Z,88.82
2023-08-14T22:27:49.478Z,88.21
2023-08-14T22:30:16.077Z,88.81
2023-08-14T22:32:42.700Z,88.61
2023-08-14T22:35:09.335Z,88.64
2023-08-14T22:37:35.829Z,88.74
2023-08-14T22:40:02.252Z,88.65
2023-08-14T22:42:28.683Z,87.99
2023-08-14T22:44:55.290Z,87.56
2023-08-14T22:47:21.837Z,88.00
2023-08-14T22:49:48.417Z,88.47
2023-08-14T22:52:14.896Z,89.33
2023-08-14T22:54:41.330Z,89.32
2023-08-14T22:57:07.808Z,88.97
2023-08-14T22:59:34.299Z,89.83
2023-08-14T23:02:00.792Z,90.42
2023-08-14T23:04:27.307Z,90.45
2023-08-14T23:06:53.740Z,90.26
2023-08-14T23:09:20.152Z,91.16
2023-08-14T23:11:50.946Z,90.23
2023-08-14T23:14:17.392Z,90.33
2023-08-14T23:16:43.791Z,90.45
2023-08-14T23:19:10.219Z,90.27
2023-08-14T23:21:36.754Z,90.30
2023-08-14T23:24:04.182Z,90.82
2023-08-14T23:26:30.672Z,90.39
2023-08-14T23:28:57.126Z,90.54
2023-08-14T23:31:23.821Z,90.15
2023-08-14T23:33:50.306Z,91.43
2023-08-14T23:36:17.054Z,91.54
2023-08-14T23:38:43.598Z,90.99
2023-08-14T23:41:09.987Z,90.37
2023-08-14T23:43:36.614Z,92.02
2023-08-14T23:46:03.100Z,91.43
2023-08-14T23:48:29.533Z,91.00
2023-08-14T23:50:56.411Z,91.91
2023-08-14T23:53:23.332Z,92.26
2023-08-14T23:55:49.772Z,91.89
2023-08-14T23:58:16.206Z,91.84
